sensor_id;sensor_type;location;lat;lon;timestamp;temperature;humidity
11736;DHT22;5924;51.398;7.088;2024-03-29T00:00:55;8.10;99.90
11736;DHT22;5924;51.398;7.088;2024-03-29T00:03:21;8.10;99.90
11736;DHT22;5924;51.398;7.088;2024-03-29T00:05:47;8.20;99.90
11736;DHT22;5924;51.398;7.088;2024-03-29T00:08:12;8.30;99.90
11736;DHT22;5924;51.398;7.088;2024-03-29T00:10:38;8.30;99.90
11736;DHT22;5924;51.398;7.088;2024-03-29T00:13:04;8.30;99.90
11736;DHT22;5924;51.398;7.088;2024-03-29T00:15:32;8.20;99.90
11736;DHT22;5924;51.398;7.088;2024-03-29T00:17:57;8.20;99.90
11736;DHT22;5924;51.398;7.088;2024-03-29T00:20:23;8.20;99.90
11736;DHT22;5924;51.398;7.088;2024-03-29T00:22:49;8.20;99.90
11736;DHT22;5924;51.398;7.088;2024-03-29T00:25:15;8.10;99.90
11736;DHT22;5924;51.398;7.088;2024-03-29T00:27:41;8.10;99.90
11736;DHT22;5924;51.398;7.088;2024-03-29T00:30:07;8.10;99.90
11736;DHT22;5924;51.398;7.088;2024-03-29T00:32:33;8.10;99.90
11736;DHT22;5924;51.398;7.088;2024-03-29T00:34:58;8.20;99.90
11736;DHT22;5924;51.398;7.088;2024-03-29T00:37:24;10.10;99.90
11736;DHT22;5924;51.398;7.088;2024-03-29T00:39:50;8.10;99.90
11736;DHT22;5924;51.398;7.088;2024-03-29T00:42:15;8.20;99.90
11736;DHT22;5924;51.398;7.088;2024-03-29T00:44:42;8.10;99.90
11736;DHT22;5924;51.398;7.088;2024-03-29T00:47:09;8.10;99.90
11736;DHT22;5924;51.398;7.088;2024-03-29T00:49:35;8.10;99.90
11736;DHT22;5924;51.398;7.088;2024-03-29T00:52:01;8.00;99.90
11736;DHT22;5924;51.398;7.088;2024-03-29T00:54:27;8.00;99.90
11736;DHT22;5924;51.398;7.088;2024-03-29T00:56:53;7.90;99.90
11736;DHT22;5924;51.398;7.088;2024-03-29T00:59:19;7.90;99.90
11736;DHT22;5924;51.398;7.088;2024-03-29T01:01:45;8.00;99.90
11736;DHT22;5924;51.398;7.088;2024-03-29T01:04:11;8.00;99.90
11736;DHT22;5924;51.398;7.088;2024-03-29T01:06:38;8.00;99.90
11736;DHT22;5924;51.398;7.088;2024-03-29T01:09:04;8.00;99.90
11736;DHT22;5924;51.398;7.088;2024-03-29T01:11:30;8.00;99.90
11736;DHT22;5924;51.398;7.088;2024-03-29T01:13:56;8.00;99.90
11736;DHT22;5924;51.398;7.088;2024-03-29T01:16:23;8.10;99.90
11736;DHT22;5924;51.398;7.088;2024-03-29T01:18:48;6.50;99.90
11736;DHT22;5924;51.398;7.088;2024-03-29T01:21:14;8.20;99.90
11736;DHT22;5924;51.398;7.088;2024-03-29T01:23:40;7.40;99.90
11736;DHT22;5924;51.398;7.088;2024-03-29T01:26:07;8.30;99.90
11736;DHT22;5924;51.398;7.088;2024-03-29T01:28:33;8.40;99.90
11736;DHT22;5924;51.398;7.088;2024-03-29T01:30:59;8.40;99.90
11736;DHT22;5924;51.398;7.088;2024-03-29T01:33:25;8.50;99.90
11736;DHT22;5924;51.398;7.088;2024-03-29T01:35:52;8.60;99.90
11736;DHT22;5924;51.398;7.088;2024-03-29T01:38:18;8.60;99.90
11736;DHT22;5924;51.398;7.088;2024-03-29T01:40:44;8.60;99.90
11736;DHT22;5924;51.398;7.088;2024-03-29T01:43:09;8.60;99.90
11736;DHT22;5924;51.398;7.088;2024-03-29T01:45:38;8.60;99.90
11736;DHT22;5924;51.398;7.088;2024-03-29T01:48:07;7.60;99.90
11736;DHT22;5924;51.398;7.088;2024-03-29T01:50:34;8.70;99.90
11736;DHT22;5924;51.398;7.088;2024-03-29T01:53:01;8.80;99.90
11736;DHT22;5924;51.398;7.088;2024-03-29T01:55:27;8.80;99.90
11736;DHT22;5924;51.398;7.088;2024-03-29T01:57:54;8.90;99.90
11736;DHT22;5924;51.398;7.088;2024-03-29T02:00:20;8.90;99.90
11736;DHT22;5924;51.398;7.088;2024-03-29T02:02:46;9.00;99.90
11736;DHT22;5924;51.398;7.088;2024-03-29T02:05:13;9.00;99.90
11736;DHT22;5924;51.398;7.088;2024-03-29T02:07:39;9.00;99.90
11736;DHT22;5924;51.398;7.088;2024-03-29T02:10:05;9.00;99.90
11736;DHT22;5924;51.398;7.088;2024-03-29T02:12:33;9.00;99.90
11736;DHT22;5924;51.398;7.088;2024-03-29T02:14:59;9.10;99.90
11736;DHT22;5924;51.398;7.088;2024-03-29T02:17:27;9.10;99.90
11736;DHT22;5924;51.398;7.088;2024-03-29T02:19:53;9.10;99.90
11736;DHT22;5924;51.398;7.088;2024-03-29T02:22:20;9.10;99.90
11736;DHT22;5924;51.398;7.088;2024-03-29T02:24:47;9.10;99.90
11736;DHT22;5924;51.398;7.088;2024-03-29T02:27:13;9.10;99.90
11736;DHT22;5924;51.398;7.088;2024-03-29T02:29:39;9.10;99.90
11736;DHT22;5924;51.398;7.088;2024-03-29T02:32:05;9.10;99.90
11736;DHT22;5924;51.398;7.088;2024-03-29T02:34:31;9.60;99.90
11736;DHT22;5924;51.398;7.088;2024-03-29T02:36:56;9.20;99.90
11736;DHT22;5924;51.398;7.088;2024-03-29T02:39:22;9.20;99.90
11736;DHT22;5924;51.398;7.088;2024-03-29T02:41:48;8.60;99.90
11736;DHT22;5924;51.398;7.088;2024-03-29T02:44:14;9.20;99.90
11736;DHT22;5924;51.398;7.088;2024-03-29T02:46:41;9.30;99.90
11736;DHT22;5924;51.398;7.088;2024-03-29T02:49:08;9.30;99.90
11736;DHT22;5924;51.398;7.088;2024-03-29T02:51:34;9.40;99.90
11736;DHT22;5924;51.398;7.088;2024-03-29T02:54:00;9.40;99.90
11736;DHT22;5924;51.398;7.088;2024-03-29T02:56:26;9.40;99.90
11736;DHT22;5924;51.398;7.088;2024-03-29T02:58:53;9.50;99.90
11736;DHT22;5924;51.398;7.088;2024-03-29T03:01:18;9.50;99.90
11736;DHT22;5924;51.398;7.088;2024-03-29T03:03:44;9.50;99.90
11736;DHT22;5924;51.398;7.088;2024-03-29T03:06:10;9.20;99.90
11736;DHT22;5924;51.398;7.088;2024-03-29T03:08:35;9.50;99.90
11736;DHT22;5924;51.398;7.088;2024-03-29T03:11:20;9.50;99.90
11736;DHT22;5924;51.398;7.088;2024-03-29T03:13:45;9.60;99.90
11736;DHT22;5924;51.398;7.088;2024-03-29T03:16:11;9.50;99.90
11736;DHT22;5924;51.398;7.088;2024-03-29T03:18:36;9.40;99.90
11736;DHT22;5924;51.398;7.088;2024-03-29T03:21:02;9.30;99.90
11736;DHT22;5924;51.398;7.088;2024-03-29T03:23:28;9.30;99.90
11736;DHT22;5924;51.398;7.088;2024-03-29T03:26:02;9.20;99.90
11736;DHT22;5924;51.398;7.088;2024-03-29T03:28:30;9.20;99.90
11736;DHT22;5924;51.398;7.088;2024-03-29T03:30:56;9.10;99.90
11736;DHT22;5924;51.398;7.088;2024-03-29T03:33:22;9.10;99.90
11736;DHT22;5924;51.398;7.088;2024-03-29T03:35:48;9.00;99.90
11736;DHT22;5924;51.398;7.088;2024-03-29T03:38:15;9.90;99.90
11736;DHT22;5924;51.398;7.088;2024-03-29T03:40:41;8.90;99.90
11736;DHT22;5924;51.398;7.088;2024-03-29T03:43:07;8.90;99.90
11736;DHT22;5924;51.398;7.088;2024-03-29T03:45:40;8.90;99.90
11736;DHT22;5924;51.398;7.088;2024-03-29T03:48:08;8.80;99.90
11736;DHT22;5924;51.398;7.088;2024-03-29T03:50:36;8.80;99.90
11736;DHT22;5924;51.398;7.088;2024-03-29T03:53:02;8.80;99.90
11736;DHT22;5924;51.398;7.088;2024-03-29T03:55:28;8.70;99.90
11736;DHT22;5924;51.398;7.088;2024-03-29T03:57:54;8.70;99.90
11736;DHT22;5924;51.398;7.088;2024-03-29T04:00:20;8.70;99.90
11736;DHT22;5924;51.398;7.088;2024-03-29T04:02:50;8.70;99.90
11736;DHT22;5924;51.398;7.088;2024-03-29T04:05:19;8.70;99.90
11736;DHT22;5924;51.398;7.088;2024-03-29T04:07:46;8.70;99.90
11736;DHT22;5924;51.398;7.088;2024-03-29T04:10:12;8.60;99.90
11736;DHT22;5924;51.398;7.088;2024-03-29T04:12:37;8.60;99.90
11736;DHT22;5924;51.398;7.088;2024-03-29T04:15:04;8.60;99.90
11736;DHT22;5924;51.398;7.088;2024-03-29T04:17:30;8.60;99.90
11736;DHT22;5924;51.398;7.088;2024-03-29T04:19:57;8.60;99.90
11736;DHT22;5924;51.398;7.088;2024-03-29T04:22:23;8.60;99.90
11736;DHT22;5924;51.398;7.088;2024-03-29T04:24:49;8.60;99.90
11736;DHT22;5924;51.398;7.088;2024-03-29T04:27:14;8.60;99.90
11736;DHT22;5924;51.398;7.088;2024-03-29T04:29:40;10.80;99.90
11736;DHT22;5924;51.398;7.088;2024-03-29T04:32:06;8.60;99.90
11736;DHT22;5924;51.398;7.088;2024-03-29T04:34:33;8.60;99.90
11736;DHT22;5924;51.398;7.088;2024-03-29T04:36:58;8.50;99.90
11736;DHT22;5924;51.398;7.088;2024-03-29T04:39:27;8.50;99.90
11736;DHT22;5924;51.398;7.088;2024-03-29T04:41:53;8.40;99.90
11736;DHT22;5924;51.398;7.088;2024-03-29T04:44:25;8.40;99.90
11736;DHT22;5924;51.398;7.088;2024-03-29T04:46:52;8.30;99.90
11736;DHT22;5924;51.398;7.088;2024-03-29T04:49:19;8.30;99.90
11736;DHT22;5924;51.398;7.088;2024-03-29T04:51:50;8.20;99.90
11736;DHT22;5924;51.398;7.088;2024-03-29T04:54:16;8.10;99.90
11736;DHT22;5924;51.398;7.088;2024-03-29T04:56:42;8.00;99.90
11736;DHT22;5924;51.398;7.088;2024-03-29T04:59:08;8.00;99.90
11736;DHT22;5924;51.398;7.088;2024-03-29T05:01:36;7.90;99.90
11736;DHT22;5924;51.398;7.088;2024-03-29T05:04:01;7.80;99.90
11736;DHT22;5924;51.398;7.088;2024-03-29T05:06:29;7.80;99.90
11736;DHT22;5924;51.398;7.088;2024-03-29T05:08:54;7.70;99.90
11736;DHT22;5924;51.398;7.088;2024-03-29T05:11:20;7.60;99.90
11736;DHT22;5924;51.398;7.088;2024-03-29T05:13:47;7.60;99.90
11736;DHT22;5924;51.398;7.088;2024-03-29T05:16:12;7.50;99.90
11736;DHT22;5924;51.398;7.088;2024-03-29T05:18:38;7.50;99.90
11736;DHT22;5924;51.398;7.088;2024-03-29T05:21:04;8.50;99.90
11736;DHT22;5924;51.398;7.088;2024-03-29T05:23:30;7.30;99.90
11736;DHT22;5924;51.398;7.088;2024-03-29T05:25:55;7.30;99.90
11736;DHT22;5924;51.398;7.088;2024-03-29T05:28:21;7.30;99.90
11736;DHT22;5924;51.398;7.088;2024-03-29T05:30:47;7.20;99.90
11736;DHT22;5924;51.398;7.088;2024-03-29T05:33:13;7.20;99.90
11736;DHT22;5924;51.398;7.088;2024-03-29T05:35:38;7.20;99.90
11736;DHT22;5924;51.398;7.088;2024-03-29T05:38:04;7.10;99.90
11736;DHT22;5924;51.398;7.088;2024-03-29T05:40:30;7.10;99.90
11736;DHT22;5924;51.398;7.088;2024-03-29T05:42:55;7.10;99.90
11736;DHT22;5924;51.398;7.088;2024-03-29T05:45:26;7.00;99.90
11736;DHT22;5924;51.398;7.088;2024-03-29T05:47:54;7.00;99.90
11736;DHT22;5924;51.398;7.088;2024-03-29T05:50:20;7.00;99.90
11736;DHT22;5924;51.398;7.088;2024-03-29T05:52:46;7.00;99.90
11736;DHT22;5924;51.398;7.088;2024-03-29T05:55:12;7.00;99.90
11736;DHT22;5924;51.398;7.088;2024-03-29T05:57:37;7.00;99.90
11736;DHT22;5924;51.398;7.088;2024-03-29T06:00:07;7.00;99.90
11736;DHT22;5924;51.398;7.088;2024-03-29T06:02:34;7.00;99.90
11736;DHT22;5924;51.398;7.088;2024-03-29T06:05:00;7.00;99.90
11736;DHT22;5924;51.398;7.088;2024-03-29T06:07:26;7.00;99.90
11736;DHT22;5924;51.398;7.088;2024-03-29T06:09:54;7.00;99.90
11736;DHT22;5924;51.398;7.088;2024-03-29T06:12:20;7.00;99.90
11736;DHT22;5924;51.398;7.088;2024-03-29T06:14:45;7.10;99.90
11736;DHT22;5924;51.398;7.088;2024-03-29T06:17:29;7.10;99.90
11736;DHT22;5924;51.398;7.088;2024-03-29T06:19:55;7.10;99.90
11736;DHT22;5924;51.398;7.088;2024-03-29T06:22:25;8.60;99.90
11736;DHT22;5924;51.398;7.088;2024-03-29T06:24:53;7.30;99.90
11736;DHT22;5924;51.398;7.088;2024-03-29T06:27:19;7.30;99.90
11736;DHT22;5924;51.398;7.088;2024-03-29T06:29:48;7.40;99.90
11736;DHT22;5924;51.398;7.088;2024-03-29T06:32:14;7.50;99.90
11736;DHT22;5924;51.398;7.088;2024-03-29T06:34:40;7.50;99.90
11736;DHT22;5924;51.398;7.088;2024-03-29T06:37:05;8.80;99.90
11736;DHT22;5924;51.398;7.088;2024-03-29T06:39:33;7.60;99.90
11736;DHT22;5924;51.398;7.088;2024-03-29T06:41:58;5.60;99.90
11736;DHT22;5924;51.398;7.088;2024-03-29T06:44:24;9.30;99.90
11736;DHT22;5924;51.398;7.088;2024-03-29T06:46:50;7.80;99.90
11736;DHT22;5924;51.398;7.088;2024-03-29T06:49:16;7.80;99.90
11736;DHT22;5924;51.398;7.088;2024-03-29T06:51:43;7.90;99.90
11736;DHT22;5924;51.398;7.088;2024-03-29T06:54:09;8.00;99.90
11736;DHT22;5924;51.398;7.088;2024-03-29T06:56:34;8.10;99.90
11736;DHT22;5924;51.398;7.088;2024-03-29T06:59:00;8.10;99.90
11736;DHT22;5924;51.398;7.088;2024-03-29T07:01:26;8.20;99.90
11736;DHT22;5924;51.398;7.088;2024-03-29T07:03:51;8.30;99.90
11736;DHT22;5924;51.398;7.088;2024-03-29T07:06:17;8.90;99.90
11736;DHT22;5924;51.398;7.088;2024-03-29T07:08:43;8.40;99.90
11736;DHT22;5924;51.398;7.088;2024-03-29T07:11:09;8.40;99.90
11736;DHT22;5924;51.398;7.088;2024-03-29T07:13:35;8.50;99.90
11736;DHT22;5924;51.398;7.088;2024-03-29T07:16:01;10.00;99.90
11736;DHT22;5924;51.398;7.088;2024-03-29T07:18:27;8.60;99.90
11736;DHT22;5924;51.398;7.088;2024-03-29T07:20:53;8.60;99.90
11736;DHT22;5924;51.398;7.088;2024-03-29T07:23:19;8.70;99.90
11736;DHT22;5924;51.398;7.088;2024-03-29T07:25:56;8.80;99.90
11736;DHT22;5924;51.398;7.088;2024-03-29T07:28:22;9.10;99.90
11736;DHT22;5924;51.398;7.088;2024-03-29T07:30:48;9.30;99.90
11736;DHT22;5924;51.398;7.088;2024-03-29T07:33:15;9.40;99.90
11736;DHT22;5924;51.398;7.088;2024-03-29T07:35:42;9.40;99.90
11736;DHT22;5924;51.398;7.088;2024-03-29T07:38:08;9.30;99.90
11736;DHT22;5924;51.398;7.088;2024-03-29T07:40:34;9.20;99.90
11736;DHT22;5924;51.398;7.088;2024-03-29T07:43:00;9.20;99.90
11736;DHT22;5924;51.398;7.088;2024-03-29T07:45:26;9.30;99.90
11736;DHT22;5924;51.398;7.088;2024-03-29T07:47:52;9.30;99.90
11736;DHT22;5924;51.398;7.088;2024-03-29T07:50:21;9.30;99.90
11736;DHT22;5924;51.398;7.088;2024-03-29T07:52:47;9.30;99.90
11736;DHT22;5924;51.398;7.088;2024-03-29T07:55:12;9.30;99.90
11736;DHT22;5924;51.398;7.088;2024-03-29T07:57:38;9.30;99.90
11736;DHT22;5924;51.398;7.088;2024-03-29T08:00:05;9.30;99.90
11736;DHT22;5924;51.398;7.088;2024-03-29T08:02:32;9.20;99.90
11736;DHT22;5924;51.398;7.088;2024-03-29T08:04:58;9.20;99.90
11736;DHT22;5924;51.398;7.088;2024-03-29T08:07:24;9.20;99.90
11736;DHT22;5924;51.398;7.088;2024-03-29T08:09:50;9.10;99.90
11736;DHT22;5924;51.398;7.088;2024-03-29T08:12:16;9.10;99.90
11736;DHT22;5924;51.398;7.088;2024-03-29T08:14:42;9.10;99.90
11736;DHT22;5924;51.398;7.088;2024-03-29T08:17:07;9.20;99.90
11736;DHT22;5924;51.398;7.088;2024-03-29T08:19:35;9.20;99.90
11736;DHT22;5924;51.398;7.088;2024-03-29T08:22:01;9.30;99.90
11736;DHT22;5924;51.398;7.088;2024-03-29T08:24:28;9.30;99.90
11736;DHT22;5924;51.398;7.088;2024-03-29T08:26:53;9.40;99.90
11736;DHT22;5924;51.398;7.088;2024-03-29T08:29:19;9.40;99.90
11736;DHT22;5924;51.398;7.088;2024-03-29T08:31:45;9.40;99.90
11736;DHT22;5924;51.398;7.088;2024-03-29T08:34:10;9.40;99.90
11736;DHT22;5924;51.398;7.088;2024-03-29T08:36:40;9.50;99.90
11736;DHT22;5924;51.398;7.088;2024-03-29T08:39:06;9.60;99.90
11736;DHT22;5924;51.398;7.088;2024-03-29T08:41:31;9.60;99.90
11736;DHT22;5924;51.398;7.088;2024-03-29T08:43:57;9.60;99.90
11736;DHT22;5924;51.398;7.088;2024-03-29T08:46:23;9.60;99.90
11736;DHT22;5924;51.398;7.088;2024-03-29T08:48:48;9.60;99.90
11736;DHT22;5924;51.398;7.088;2024-03-29T08:51:14;9.60;99.90
11736;DHT22;5924;51.398;7.088;2024-03-29T08:53:41;9.60;99.90
11736;DHT22;5924;51.398;7.088;2024-03-29T08:56:06;9.60;99.90
11736;DHT22;5924;51.398;7.088;2024-03-29T08:58:32;9.80;99.90
11736;DHT22;5924;51.398;7.088;2024-03-29T09:00:58;10.00;99.90
11736;DHT22;5924;51.398;7.088;2024-03-29T09:03:24;10.10;99.90
11736;DHT22;5924;51.398;7.088;2024-03-29T09:05:51;10.20;99.90
11736;DHT22;5924;51.398;7.088;2024-03-29T09:08:19;10.20;99.90
11736;DHT22;5924;51.398;7.088;2024-03-29T09:10:45;10.20;99.90
11736;DHT22;5924;51.398;7.088;2024-03-29T09:13:11;10.20;99.90
11736;DHT22;5924;51.398;7.088;2024-03-29T09:15:38;10.20;99.90
11736;DHT22;5924;51.398;7.088;2024-03-29T09:18:03;10.30;99.90
11736;DHT22;5924;51.398;7.088;2024-03-29T09:20:39;10.40;99.90
11736;DHT22;5924;51.398;7.088;2024-03-29T09:23:05;10.50;99.90
11736;DHT22;5924;51.398;7.088;2024-03-29T09:25:30;10.60;99.90
11736;DHT22;5924;51.398;7.088;2024-03-29T09:27:57;10.70;99.90
11736;DHT22;5924;51.398;7.088;2024-03-29T09:30:23;10.80;99.90
11736;DHT22;5924;51.398;7.088;2024-03-29T09:32:48;11.00;99.90
11736;DHT22;5924;51.398;7.088;2024-03-29T09:35:17;11.10;99.90
11736;DHT22;5924;51.398;7.088;2024-03-29T09:37:43;11.30;99.90
11736;DHT22;5924;51.398;7.088;2024-03-29T09:40:10;11.30;99.90
11736;DHT22;5924;51.398;7.088;2024-03-29T09:42:39;11.30;99.90
11736;DHT22;5924;51.398;7.088;2024-03-29T09:45:05;11.30;99.90
11736;DHT22;5924;51.398;7.088;2024-03-29T09:47:32;11.40;99.90
11736;DHT22;5924;51.398;7.088;2024-03-29T09:50:07;11.40;99.90
11736;DHT22;5924;51.398;7.088;2024-03-29T09:52:33;11.50;99.90
11736;DHT22;5924;51.398;7.088;2024-03-29T09:55:00;11.60;99.90
11736;DHT22;5924;51.398;7.088;2024-03-29T09:57:27;11.80;99.90
11736;DHT22;5924;51.398;7.088;2024-03-29T09:59:57;11.90;99.90
11736;DHT22;5924;51.398;7.088;2024-03-29T10:02:27;12.00;99.90
11736;DHT22;5924;51.398;7.088;2024-03-29T10:04:54;12.10;99.90
11736;DHT22;5924;51.398;7.088;2024-03-29T10:07:21;12.30;99.90
11736;DHT22;5924;51.398;7.088;2024-03-29T10:09:48;12.50;99.90
11736;DHT22;5924;51.398;7.088;2024-03-29T10:12:16;12.50;99.90
11736;DHT22;5924;51.398;7.088;2024-03-29T10:14:44;12.40;99.90
11736;DHT22;5924;51.398;7.088;2024-03-29T10:17:15;12.40;99.90
11736;DHT22;5924;51.398;7.088;2024-03-29T10:19:42;12.50;99.90
11736;DHT22;5924;51.398;7.088;2024-03-29T10:22:08;12.50;99.90
11736;DHT22;5924;51.398;7.088;2024-03-29T10:24:34;12.50;99.90
11736;DHT22;5924;51.398;7.088;2024-03-29T10:26:59;12.50;99.90
11736;DHT22;5924;51.398;7.088;2024-03-29T10:29:31;12.40;99.90
11736;DHT22;5924;51.398;7.088;2024-03-29T10:31:57;12.40;99.90
11736;DHT22;5924;51.398;7.088;2024-03-29T10:34:24;12.40;99.90
11736;DHT22;5924;51.398;7.088;2024-03-29T10:36:50;12.30;99.90
11736;DHT22;5924;51.398;7.088;2024-03-29T10:39:17;12.20;99.90
11736;DHT22;5924;51.398;7.088;2024-03-29T10:41:46;12.20;99.90
11736;DHT22;5924;51.398;7.088;2024-03-29T10:44:13;12.10;99.90
11736;DHT22;5924;51.398;7.088;2024-03-29T10:46:40;12.10;99.90
11736;DHT22;5924;51.398;7.088;2024-03-29T10:49:08;12.10;99.90
11736;DHT22;5924;51.398;7.088;2024-03-29T10:51:39;12.20;99.90
11736;DHT22;5924;51.398;7.088;2024-03-29T10:54:09;12.40;99.90
11736;DHT22;5924;51.398;7.088;2024-03-29T10:56:38;12.50;99.90
11736;DHT22;5924;51.398;7.088;2024-03-29T10:59:12;12.80;99.90
11736;DHT22;5924;51.398;7.088;2024-03-29T11:01:44;12.90;99.90
11736;DHT22;5924;51.398;7.088;2024-03-29T11:04:22;13.00;99.90
11736;DHT22;5924;51.398;7.088;2024-03-29T11:06:51;13.10;99.90
11736;DHT22;5924;51.398;7.088;2024-03-29T11:09:20;13.10;99.90
11736;DHT22;5924;51.398;7.088;2024-03-29T11:11:50;13.30;99.90
11736;DHT22;5924;51.398;7.088;2024-03-29T11:14:20;13.10;99.90
11736;DHT22;5924;51.398;7.088;2024-03-29T11:16:49;13.40;99.90
11736;DHT22;5924;51.398;7.088;2024-03-29T11:19:18;13.80;99.90
11736;DHT22;5924;51.398;7.088;2024-03-29T11:21:44;14.10;99.90
11736;DHT22;5924;51.398;7.088;2024-03-29T11:24:15;14.50;99.90
11736;DHT22;5924;51.398;7.088;2024-03-29T11:26:42;14.90;99.90
11736;DHT22;5924;51.398;7.088;2024-03-29T11:29:21;15.10;99.90
11736;DHT22;5924;51.398;7.088;2024-03-29T11:31:47;15.30;99.90
11736;DHT22;5924;51.398;7.088;2024-03-29T11:34:19;15.50;99.90
11736;DHT22;5924;51.398;7.088;2024-03-29T11:36:45;15.80;99.90
11736;DHT22;5924;51.398;7.088;2024-03-29T11:39:20;16.00;99.90
11736;DHT22;5924;51.398;7.088;2024-03-29T11:41:47;16.10;99.90
11736;DHT22;5924;51.398;7.088;2024-03-29T11:44:13;16.10;99.90
11736;DHT22;5924;51.398;7.088;2024-03-29T11:46:39;16.00;99.90
11736;DHT22;5924;51.398;7.088;2024-03-29T11:49:05;15.90;99.90
11736;DHT22;5924;51.398;7.088;2024-03-29T11:51:31;15.60;99.90
11736;DHT22;5924;51.398;7.088;2024-03-29T11:53:57;15.30;99.90
11736;DHT22;5924;51.398;7.088;2024-03-29T11:56:23;15.20;99.90
11736;DHT22;5924;51.398;7.088;2024-03-29T11:58:48;15.00;99.90
11736;DHT22;5924;51.398;7.088;2024-03-29T12:01:15;14.80;99.90
11736;DHT22;5924;51.398;7.088;2024-03-29T12:03:42;14.70;99.90
11736;DHT22;5924;51.398;7.088;2024-03-29T12:06:09;14.60;99.90
11736;DHT22;5924;51.398;7.088;2024-03-29T12:08:39;14.70;99.90
11736;DHT22;5924;51.398;7.088;2024-03-29T12:11:06;14.60;99.90
11736;DHT22;5924;51.398;7.088;2024-03-29T12:13:32;16.20;99.90
11736;DHT22;5924;51.398;7.088;2024-03-29T12:15:59;14.50;99.90
11736;DHT22;5924;51.398;7.088;2024-03-29T12:18:25;14.40;99.90
11736;DHT22;5924;51.398;7.088;2024-03-29T12:20:51;14.40;99.90
11736;DHT22;5924;51.398;7.088;2024-03-29T12:23:18;14.40;99.90
11736;DHT22;5924;51.398;7.088;2024-03-29T12:25:45;14.20;99.90
11736;DHT22;5924;51.398;7.088;2024-03-29T12:28:12;14.10;99.90
11736;DHT22;5924;51.398;7.088;2024-03-29T12:30:43;14.10;99.90
11736;DHT22;5924;51.398;7.088;2024-03-29T12:33:18;14.10;99.90
11736;DHT22;5924;51.398;7.088;2024-03-29T12:35:51;14.20;99.90
11736;DHT22;5924;51.398;7.088;2024-03-29T12:38:20;14.20;99.90
11736;DHT22;5924;51.398;7.088;2024-03-29T12:40:47;14.30;99.90
11736;DHT22;5924;51.398;7.088;2024-03-29T12:43:14;14.50;99.90
11736;DHT22;5924;51.398;7.088;2024-03-29T12:45:42;14.70;99.90
11736;DHT22;5924;51.398;7.088;2024-03-29T12:48:15;14.80;99.90
11736;DHT22;5924;51.398;7.088;2024-03-29T12:50:43;14.90;99.90
11736;DHT22;5924;51.398;7.088;2024-03-29T12:53:10;14.90;99.90
11736;DHT22;5924;51.398;7.088;2024-03-29T12:55:37;14.90;99.90
11736;DHT22;5924;51.398;7.088;2024-03-29T12:58:05;14.90;99.90
11736;DHT22;5924;51.398;7.088;2024-03-29T13:00:34;14.90;99.90
11736;DHT22;5924;51.398;7.088;2024-03-29T13:02:59;15.00;99.90
11736;DHT22;5924;51.398;7.088;2024-03-29T13:05:26;15.00;99.90
11736;DHT22;5924;51.398;7.088;2024-03-29T13:07:53;14.90;99.90
11736;DHT22;5924;51.398;7.088;2024-03-29T13:10:19;14.80;99.90
11736;DHT22;5924;51.398;7.088;2024-03-29T13:12:47;14.90;99.90
11736;DHT22;5924;51.398;7.088;2024-03-29T13:15:16;15.10;99.90
11736;DHT22;5924;51.398;7.088;2024-03-29T13:17:42;15.40;99.90
11736;DHT22;5924;51.398;7.088;2024-03-29T13:20:09;15.60;99.90
11736;DHT22;5924;51.398;7.088;2024-03-29T13:22:35;15.80;99.90
11736;DHT22;5924;51.398;7.088;2024-03-29T13:25:02;16.00;99.90
11736;DHT22;5924;51.398;7.088;2024-03-29T13:27:28;16.30;99.90
11736;DHT22;5924;51.398;7.088;2024-03-29T13:29:53;16.50;99.90
11736;DHT22;5924;51.398;7.088;2024-03-29T13:32:19;16.80;99.90
11736;DHT22;5924;51.398;7.088;2024-03-29T13:34:45;17.10;99.90
11736;DHT22;5924;51.398;7.088;2024-03-29T13:37:10;17.40;99.90
11736;DHT22;5924;51.398;7.088;2024-03-29T13:39:36;17.30;99.90
11736;DHT22;5924;51.398;7.088;2024-03-29T13:42:01;17.20;99.90
11736;DHT22;5924;51.398;7.088;2024-03-29T13:44:27;16.90;99.90
11736;DHT22;5924;51.398;7.088;2024-03-29T13:46:53;16.70;99.90
11736;DHT22;5924;51.398;7.088;2024-03-29T13:49:19;16.60;99.90
11736;DHT22;5924;51.398;7.088;2024-03-29T13:51:48;16.60;99.90
11736;DHT22;5924;51.398;7.088;2024-03-29T13:54:14;16.60;99.90
11736;DHT22;5924;51.398;7.088;2024-03-29T13:56:40;16.60;99.90
11736;DHT22;5924;51.398;7.088;2024-03-29T13:59:06;16.60;99.90
11736;DHT22;5924;51.398;7.088;2024-03-29T14:01:31;17.10;99.90
11736;DHT22;5924;51.398;7.088;2024-03-29T14:03:57;18.60;99.90
11736;DHT22;5924;51.398;7.088;2024-03-29T14:06:23;19.90;99.90
11736;DHT22;5924;51.398;7.088;2024-03-29T14:08:48;20.90;99.90
11736;DHT22;5924;51.398;7.088;2024-03-29T14:11:14;23.30;99.90
11736;DHT22;5924;51.398;7.088;2024-03-29T14:13:40;22.40;99.90
11736;DHT22;5924;51.398;7.088;2024-03-29T14:16:06;22.50;99.90
11736;DHT22;5924;51.398;7.088;2024-03-29T14:18:32;22.10;99.90
11736;DHT22;5924;51.398;7.088;2024-03-29T14:20:57;22.00;99.90
11736;DHT22;5924;51.398;7.088;2024-03-29T14:23:23;21.40;99.90
11736;DHT22;5924;51.398;7.088;2024-03-29T14:25:51;20.60;99.90
11736;DHT22;5924;51.398;7.088;2024-03-29T14:28:16;20.10;99.90
11736;DHT22;5924;51.398;7.088;2024-03-29T14:30:42;19.40;99.90
11736;DHT22;5924;51.398;7.088;2024-03-29T14:33:08;18.80;99.90
11736;DHT22;5924;51.398;7.088;2024-03-29T14:35:35;18.30;99.90
11736;DHT22;5924;51.398;7.088;2024-03-29T14:38:00;19.00;99.90
11736;DHT22;5924;51.398;7.088;2024-03-29T14:40:26;17.90;99.90
11736;DHT22;5924;51.398;7.088;2024-03-29T14:42:52;17.80;99.90
11736;DHT22;5924;51.398;7.088;2024-03-29T14:45:23;17.90;99.90
11736;DHT22;5924;51.398;7.088;2024-03-29T14:47:49;17.80;99.90
11736;DHT22;5924;51.398;7.088;2024-03-29T14:50:15;17.80;99.90
11736;DHT22;5924;51.398;7.088;2024-03-29T14:52:41;18.00;99.90
11736;DHT22;5924;51.398;7.088;2024-03-29T14:55:07;18.20;99.90
11736;DHT22;5924;51.398;7.088;2024-03-29T14:57:32;18.20;99.90
11736;DHT22;5924;51.398;7.088;2024-03-29T14:59:58;18.00;99.90
11736;DHT22;5924;51.398;7.088;2024-03-29T15:02:24;17.70;99.90
11736;DHT22;5924;51.398;7.088;2024-03-29T15:04:50;17.40;99.90
11736;DHT22;5924;51.398;7.088;2024-03-29T15:07:15;17.30;99.90
11736;DHT22;5924;51.398;7.088;2024-03-29T15:09:41;17.20;99.90
11736;DHT22;5924;51.398;7.088;2024-03-29T15:12:07;16.90;99.90
11736;DHT22;5924;51.398;7.088;2024-03-29T15:14:34;16.70;99.90
11736;DHT22;5924;51.398;7.088;2024-03-29T15:17:03;16.50;99.90
11736;DHT22;5924;51.398;7.088;2024-03-29T15:19:29;16.20;99.90
11736;DHT22;5924;51.398;7.088;2024-03-29T15:21:55;16.10;99.90
11736;DHT22;5924;51.398;7.088;2024-03-29T15:24:22;16.00;99.90
11736;DHT22;5924;51.398;7.088;2024-03-29T15:26:48;16.10;99.90
11736;DHT22;5924;51.398;7.088;2024-03-29T15:29:15;16.10;99.90
11736;DHT22;5924;51.398;7.088;2024-03-29T15:31:42;16.00;99.90
11736;DHT22;5924;51.398;7.088;2024-03-29T15:34:10;15.80;99.90
11736;DHT22;5924;51.398;7.088;2024-03-29T15:36:37;15.60;99.90
11736;DHT22;5924;51.398;7.088;2024-03-29T15:39:04;15.60;99.90
11736;DHT22;5924;51.398;7.088;2024-03-29T15:41:40;15.40;99.90
11736;DHT22;5924;51.398;7.088;2024-03-29T15:44:06;15.20;99.90
11736;DHT22;5924;51.398;7.088;2024-03-29T15:46:35;14.90;99.90
11736;DHT22;5924;51.398;7.088;2024-03-29T15:49:01;14.70;99.90
11736;DHT22;5924;51.398;7.088;2024-03-29T15:51:26;14.60;99.90